Latest METARs, TAFs and NOTAMs for ETSI


---------------------------------------------------------------------------
	(OBSERVATIONS)
ETSI 051820Z 29011KT 9999 FEW040 BKN070 20/10 Q1011 BLU=
---------------------------------------------------------------------------
	(FC)
TAF ETSI 051315Z 0514/0523 28010KT 9999 NSW BKN140
     PROB30 0514/0517 30015G30KT 4000 TSRA SCT015 BKN020CB
     BECMG 0517/0519 31010KT 9999 -RA FEW010 BKN015 OVC090
     TEMPO 0520/0523 33012G22KT 4000 RA FEW008 OVC012=
---------------------------------------------------------------------------
	(TERMINAL AREA FORECAST)
ETSI 051315Z 0514/0523 28010KT    9999  NSW  BKN140
    PROB30 0514/0517 30015G30KT 4000  TSRA SCT015 BKN020CB
    BECMG  0517/0519 31010KT    9999 -RA   FEW010 BKN015 OVC090
    TEMPO  0520/0523 33012G22KT 4000  RA   FEW008 OVC012=
---------------------------------------------------------------------------
	(NOTAMS)


ETSI E1073/15 SPECIAL ACTIVITY AREA ESTABLISHED FOR AEROBATIC
    FLIGHTS 3NM RADIUS CENTERED AT 484200N 0113200E (INGOLSTADT).
    GND - 6000FT AMSL, SAT SUN 0700-SS AND MAY 01 14 25 AND JUN
    04 0700-SS, 18 APR 07:00 2015 UNTIL 12 JUL 19:30 2015. CREATED:
    14 APR 06:07 2015

ETSI P1445/15 AD ETSI: LIMITED RADAR COVERAGE BELOW 5000FT MSL
    DETAILED INFORMATION BY INGO RADAR. 27 FEB 08:46 2015 UNTIL
    22 MAY 13:00 2015. CREATED: 27 FEB 09:00 2015

ETSI P1446/15 AD ETSI: NO SRA POSSIBLE. 27 FEB 08:47 2015 UNTIL
    22 MAY 12:00 2015. CREATED: 27 FEB 09:01 2015

ETSI P1447/15 AD ETSI: PAR RWY25R/07L OUT OF SERVICE. 27 FEB
    08:48 2015 UNTIL 22 MAY 12:00 2015. CREATED: 27 FEB 09:03
    2015

ETSI P1448/15 AD ETSI: PAR RWY25L/07R OUT OF SERVICE. 27 FEB
    08:49 2015 UNTIL 22 MAY 12:00 2015. CREATED: 27 FEB 09:04
    2015

ETSI P1454/15 AD ETSI: TACAN APCH RWY07R SUSPENDED. 27 FEB 09:11
    2015 UNTIL 22 MAY 12:00 2015. CREATED: 27 FEB 09:22 2015

ETSI P3151/15 AD ETSI: NO REFUELING ON MIL PART. 05 MAY 07:00
    2015 UNTIL 08 MAY 12:00 2015. CREATED: 30 APR 13:35 2015

---------------------------------------------------------------------------